createdAt,value
2022-08-08T00:00:52.258Z,89.80
2022-08-08T00:03:13.232Z,90.10
2022-08-08T00:06:04.652Z,90.20
2022-08-08T00:08:49.020Z,90.00
2022-08-08T00:11:46.601Z,90.50
2022-08-08T00:14:48.140Z,90.00
2022-08-08T00:17:25.412Z,90.00
2022-08-08T00:20:14.445Z,90.00
2022-08-08T00:22:50.154Z,90.10
2022-08-08T00:25:25.175Z,90.20
2022-08-08T00:28:34.566Z,90.20
2022-08-08T00:32:20.479Z,90.10
2022-08-08T00:34:46.062Z,90.10
2022-08-08T00:37:47.095Z,90.60
2022-08-08T00:41:12.079Z,90.90
2022-08-08T00:44:48.448Z,91.10
2022-08-08T00:48:30.262Z,91.00
2022-08-08T00:51:51.698Z,90.90
2022-08-08T00:54:54.036Z,91.20
2022-08-08T01:00:18.540Z,91.40
2022-08-08T01:03:59.402Z,91.50
2022-08-08T01:07:23.633Z,91.90
2022-08-08T01:10:59.345Z,92.00
2022-08-08T01:14:16.441Z,92.10
2022-08-08T01:17:54.112Z,92.30
2022-08-08T01:20:48.596Z,92.80
2022-08-08T01:24:19.207Z,93.10
2022-08-08T01:27:44.402Z,93.40
2022-08-08T01:32:06.582Z,93.10
2022-08-08T01:34:46.612Z,93.00
2022-08-08T01:38:14.030Z,93.20
2022-08-08T01:41:00.191Z,93.40
2022-08-08T01:43:40.868Z,93.60
2022-08-08T01:46:41.455Z,93.80
2022-08-08T01:49:37.856Z,94.10
2022-08-08T01:53:07.205Z,94.30
2022-08-08T01:56:26.735Z,94.40
2022-08-08T01:58:38.403Z,94.30
2022-08-08T02:01:28.114Z,94.50
2022-08-08T02:04:28.325Z,94.70
2022-08-08T02:07:04.777Z,94.70
2022-08-08T02:10:03.559Z,94.60
2022-08-08T02:12:53.371Z,94.70
2022-08-08T02:15:38.495Z,95.00
2022-08-08T02:18:17.267Z,95.20
2022-08-08T02:21:13.371Z,95.20
2022-08-08T02:23:54.778Z,95.30
2022-08-08T02:26:33.489Z,95.60
2022-08-08T02:29:41.657Z,95.70
2022-08-08T02:33:02.169Z,95.90
2022-08-08T02:36:05.679Z,96.10
2022-08-08T02:39:42.451Z,96.30
2022-08-08T02:42:36.292Z,96.60
2022-08-08T02:45:54.337Z,96.80
2022-08-08T02:49:03.083Z,97.10
2022-08-08T02:52:34.695Z,97.20
2022-08-08T02:55:25.166Z,97.20
2022-08-08T02:58:58.923Z,97.30
2022-08-08T03:02:20.074Z,97.60
2022-08-08T03:05:45.303Z,97.60
2022-08-08T03:09:13.819Z,97.60
2022-08-08T03:12:36.296Z,97.20
2022-08-08T03:15:56.227Z,97.30
2022-08-08T03:18:39.262Z,97.50
2022-08-08T03:21:09.552Z,97.60
2022-08-08T03:23:59.437Z,97.50
2022-08-08T03:26:41.964Z,97.90
2022-08-08T03:29:20.892Z,98.20
2022-08-08T03:32:14.226Z,98.50
2022-08-08T03:34:44.809Z,98.80
2022-08-08T03:38:00.118Z,98.80
2022-08-08T03:40:30.486Z,98.90
2022-08-08T03:43:16.463Z,99.10
2022-08-08T03:46:07.206Z,99.40
2022-08-08T03:49:54.880Z,99.40
2022-08-08T03:51:50.450Z,99.50
2022-08-08T03:54:41.827Z,99.60
2022-08-08T03:58:33.516Z,99.80
2022-08-08T04:00:11.956Z,99.90
2022-08-08T04:03:02.092Z,99.90
2022-08-08T04:05:35.905Z,99.90
2022-08-08T04:08:33.762Z,99.90
2022-08-08T04:11:17.779Z,99.90
2022-08-08T04:14:03.676Z,99.90
2022-08-08T04:16:40.171Z,99.90
2022-08-08T04:19:23.682Z,99.90
2022-08-08T04:21:55.839Z,99.90
2022-08-08T04:24:28.752Z,99.90
2022-08-08T04:26:59.875Z,99.90
2022-08-08T04:29:36.993Z,99.90
2022-08-08T04:32:14.233Z,99.90
2022-08-08T04:35:01.307Z,99.90
2022-08-08T04:37:35.557Z,99.90
2022-08-08T04:40:13.123Z,99.90
2022-08-08T04:42:57.349Z,99.90
2022-08-08T04:45:38.902Z,99.90
2022-08-08T04:48:08.882Z,99.90
2022-08-08T04:50:46.026Z,99.90
2022-08-08T04:54:36.618Z,99.90
2022-08-08T04:56:09.470Z,99.90
2022-08-08T04:58:39.029Z,99.90
2022-08-08T05:01:11.454Z,99.90
2022-08-08T05:04:10.408Z,99.90
2022-08-08T05:06:42.298Z,99.90
2022-08-08T05:09:12.116Z,99.90
2022-08-08T05:11:47.658Z,99.90
2022-08-08T05:14:20.490Z,99.90
2022-08-08T05:17:00.581Z,99.90
2022-08-08T05:20:06.204Z,99.10
2022-08-08T05:22:35.809Z,97.40
2022-08-08T05:25:06.642Z,96.20
2022-08-08T05:27:41.468Z,95.50
2022-08-08T05:30:14.185Z,94.80
2022-08-08T05:32:49.274Z,94.20
2022-08-08T05:35:24.924Z,93.50
2022-08-08T05:38:04.664Z,92.80
2022-08-08T05:40:58.192Z,92.40
2022-08-08T05:44:02.668Z,92.20
2022-08-08T05:46:24.528Z,91.90
2022-08-08T05:48:56.535Z,91.30
2022-08-08T05:51:49.111Z,91.60
2022-08-08T05:54:50.753Z,91.20
2022-08-08T05:57:57.859Z,91.30
2022-08-08T06:00:19.578Z,91.20
2022-08-08T06:03:24.669Z,91.10
2022-08-08T06:06:06.513Z,90.70
2022-08-08T06:08:53.122Z,90.50
2022-08-08T06:11:28.366Z,90.50
2022-08-08T06:14:02.164Z,90.90
2022-08-08T06:16:36.683Z,91.00
2022-08-08T06:19:18.173Z,91.20
2022-08-08T06:21:56.972Z,90.70
2022-08-08T06:24:47.121Z,90.90
2022-08-08T06:27:32.886Z,91.30
2022-08-08T06:30:11.923Z,90.90
2022-08-08T06:32:57.376Z,91.10
2022-08-08T06:36:07.312Z,91.30
2022-08-08T06:38:29.208Z,91.10
2022-08-08T06:41:13.506Z,91.60
2022-08-08T06:43:57.430Z,91.40
2022-08-08T06:46:31.943Z,91.50
2022-08-08T06:49:12.434Z,92.00
2022-08-08T06:51:52.425Z,92.20
2022-08-08T06:54:33.563Z,92.40
2022-08-08T06:57:03.352Z,92.70
2022-08-08T07:00:10.818Z,93.10
2022-08-08T07:02:31.995Z,93.20
2022-08-08T07:05:07.645Z,93.70
2022-08-08T07:08:04.974Z,93.50
2022-08-08T07:10:44.560Z,93.50
2022-08-08T07:13:25.417Z,93.80
2022-08-08T07:16:10.299Z,94.00
2022-08-08T07:19:00.912Z,94.10
2022-08-08T07:21:44.454Z,94.00
2022-08-08T07:24:22.943Z,94.00
2022-08-08T07:27:04.941Z,94.30
2022-08-08T07:30:01.770Z,94.00
2022-08-08T07:32:40.434Z,94.00
2022-08-08T07:35:12.429Z,93.80
2022-08-08T07:38:04.235Z,93.80
2022-08-08T07:40:46.507Z,93.90
2022-08-08T07:43:32.106Z,94.20
2022-08-08T07:46:23.215Z,94.00
2022-08-08T07:49:00.381Z,94.00
2022-08-08T07:51:44.733Z,93.90
2022-08-08T07:54:31.940Z,94.70
2022-08-08T07:57:19.944Z,94.60
2022-08-08T08:00:02.246Z,94.40
2022-08-08T08:02:41.674Z,94.70
2022-08-08T08:05:22.808Z,94.70
2022-08-08T08:08:06.376Z,95.20
2022-08-08T08:10:39.870Z,95.00
2022-08-08T08:13:25.622Z,95.00
2022-08-08T08:16:23.271Z,95.10
2022-08-08T08:18:59.118Z,95.00
2022-08-08T08:21:53.474Z,95.40
2022-08-08T08:24:53.478Z,95.10
2022-08-08T08:27:30.277Z,95.40
2022-08-08T08:30:01.028Z,95.00
2022-08-08T08:32:41.043Z,95.00
2022-08-08T08:35:29.944Z,95.10
2022-08-08T08:38:17.143Z,95.00
2022-08-08T08:40:52.061Z,95.10
2022-08-08T08:43:26.649Z,94.90
2022-08-08T08:46:03.585Z,94.70
2022-08-08T08:48:41.891Z,94.50
2022-08-08T08:51:20.971Z,94.20
2022-08-08T08:53:59.940Z,94.20
2022-08-08T08:56:40.099Z,94.20
2022-08-08T08:59:59.566Z,94.50
2022-08-08T09:02:22.170Z,94.00
2022-08-08T09:05:00.804Z,93.80
2022-08-08T09:07:39.676Z,94.30
2022-08-08T09:10:28.926Z,94.30
2022-08-08T09:13:01.523Z,94.60
2022-08-08T09:15:40.731Z,94.00
2022-08-08T09:18:13.080Z,93.80
2022-08-08T09:22:00.131Z,93.40
2022-08-08T09:23:38.184Z,92.30
2022-08-08T09:26:21.458Z,93.10
2022-08-08T09:28:53.696Z,92.70
2022-08-08T09:31:56.854Z,93.10
2022-08-08T09:34:34.292Z,92.80
2022-08-08T09:37:39.656Z,93.20
2022-08-08T09:40:15.492Z,92.80
2022-08-08T09:42:52.130Z,92.40
2022-08-08T09:46:01.101Z,91.80
2022-08-08T09:48:20.904Z,91.70
2022-08-08T09:50:56.242Z,91.60
2022-08-08T09:54:01.160Z,91.10
2022-08-08T09:56:28.018Z,91.10
2022-08-08T09:59:20.039Z,91.20
2022-08-08T10:02:00.148Z,91.20
2022-08-08T10:04:41.433Z,91.60
2022-08-08T10:07:21.879Z,91.50
2022-08-08T10:10:00.825Z,91.50
2022-08-08T10:12:38.516Z,91.20
2022-08-08T10:15:24.224Z,91.30
2022-08-08T10:18:06.431Z,91.20
2022-08-08T10:20:51.268Z,91.30
2022-08-08T10:23:45.988Z,90.80
2022-08-08T10:26:29.716Z,91.00
2022-08-08T10:29:06.463Z,90.60
2022-08-08T10:31:56.666Z,91.10
2022-08-08T10:34:30.819Z,90.40
2022-08-08T10:37:01.385Z,90.40
2022-08-08T10:39:54.422Z,90.00
2022-08-08T10:42:35.457Z,90.10
2022-08-08T10:45:09.769Z,90.20
2022-08-08T10:47:43.374Z,90.00
2022-08-08T10:50:16.618Z,89.60
2022-08-08T10:52:49.255Z,89.60
2022-08-08T10:55:41.017Z,88.20
2022-08-08T10:58:16.344Z,88.00
2022-08-08T11:00:52.731Z,85.50
2022-08-08T11:04:00.568Z,85.40
2022-08-08T11:06:34.476Z,85.80
2022-08-08T11:09:09.799Z,83.80
2022-08-08T11:12:05.132Z,80.10
2022-08-08T11:14:56.797Z,79.80
2022-08-08T11:18:00.748Z,79.80
2022-08-08T11:20:27.583Z,77.70
2022-08-08T11:23:05.329Z,77.00
2022-08-08T11:25:52.962Z,76.30
2022-08-08T11:28:30.409Z,75.40
2022-08-08T11:31:04.597Z,76.00
2022-08-08T11:33:53.500Z,76.40
2022-08-08T11:36:27.730Z,75.50
2022-08-08T11:39:02.300Z,75.40
2022-08-08T11:41:37.112Z,75.20
2022-08-08T11:44:10.723Z,75.40
2022-08-08T11:46:41.542Z,76.30
2022-08-08T11:49:14.141Z,75.50
2022-08-08T11:51:50.444Z,77.20
2022-08-08T11:54:33.943Z,75.40
2022-08-08T11:57:14.589Z,76.00
2022-08-08T12:00:00.899Z,75.50
2022-08-08T12:02:57.385Z,74.60
2022-08-08T12:05:36.907Z,74.30
2022-08-08T12:08:06.548Z,74.60
2022-08-08T12:10:47.562Z,74.90
2022-08-08T12:13:37.874Z,75.50
2022-08-08T12:16:16.220Z,74.70
2022-08-08T12:18:52.839Z,74.20
2022-08-08T12:21:59.645Z,74.10
2022-08-08T12:24:19.436Z,75.40
2022-08-08T12:26:51.822Z,73.10
2022-08-08T12:29:40.269Z,73.50
2022-08-08T12:32:20.895Z,73.00
2022-08-08T12:35:17.457Z,73.40
2022-08-08T12:38:02.018Z,73.10
2022-08-08T12:40:56.814Z,73.00
2022-08-08T12:43:32.781Z,72.50
2022-08-08T12:46:19.398Z,70.90
2022-08-08T12:49:22.288Z,71.40
2022-08-08T12:51:59.360Z,71.60
2022-08-08T12:54:36.301Z,70.90
2022-08-08T12:57:21.374Z,70.10
2022-08-08T13:00:05.029Z,69.50
2022-08-08T13:02:53.154Z,70.10
2022-08-08T13:05:27.148Z,70.20
2022-08-08T13:08:22.207Z,68.60
2022-08-08T13:12:19.570Z,68.80
2022-08-08T13:14:22.535Z,68.80
2022-08-08T13:16:53.532Z,69.00
2022-08-08T13:19:25.531Z,69.20
2022-08-08T13:22:17.578Z,68.70
2022-08-08T13:24:49.492Z,67.70
2022-08-08T13:27:21.685Z,68.20
2022-08-08T13:29:54.452Z,68.90
2022-08-08T13:32:26.211Z,67.40
2022-08-08T13:34:59.026Z,68.50
2022-08-08T13:38:05.488Z,67.40
2022-08-08T13:40:27.865Z,67.20
2022-08-08T13:42:58.381Z,66.70
2022-08-08T13:45:27.861Z,67.70
2022-08-08T13:48:00.964Z,67.20
2022-08-08T13:50:48.074Z,67.00
2022-08-08T13:53:34.083Z,66.90
2022-08-08T13:56:14.178Z,67.00
2022-08-08T13:58:56.345Z,67.20
2022-08-08T14:01:41.900Z,67.50
2022-08-08T14:04:23.373Z,66.40
2022-08-08T14:07:02.613Z,66.50
2022-08-08T14:10:04.734Z,66.30
2022-08-08T14:12:29.602Z,66.30
2022-08-08T14:15:02.921Z,66.30
2022-08-08T14:17:59.371Z,64.70
2022-08-08T14:20:57.677Z,65.30
2022-08-08T14:24:04.343Z,65.10
2022-08-08T14:26:28.019Z,65.60
2022-08-08T14:29:01.446Z,65.40
2022-08-08T14:32:11.039Z,64.80
2022-08-08T14:34:43.515Z,64.80
2022-08-08T14:37:18.817Z,65.00
2022-08-08T14:40:05.944Z,65.10
2022-08-08T14:42:47.403Z,64.80
2022-08-08T14:45:46.990Z,64.70
2022-08-08T14:48:34.053Z,64.70
2022-08-08T14:51:07.750Z,65.50
2022-08-08T14:53:55.586Z,63.60
2022-08-08T14:56:26.675Z,64.40
2022-08-08T14:58:56.231Z,64.20
2022-08-08T15:01:37.549Z,64.10
2022-08-08T15:04:13.384Z,63.20
2022-08-08T15:06:45.476Z,63.40
2022-08-08T15:09:19.539Z,63.20
2022-08-08T15:11:53.251Z,63.10
2022-08-08T15:14:26.828Z,63.00
2022-08-08T15:16:57.589Z,63.90
2022-08-08T15:19:28.119Z,62.70
2022-08-08T15:21:58.250Z,62.70
2022-08-08T15:24:31.706Z,61.90
2022-08-08T15:27:04.031Z,62.50
2022-08-08T15:29:49.346Z,62.40
2022-08-08T15:32:35.719Z,62.70
2022-08-08T15:35:39.210Z,62.40
2022-08-08T15:38:35.858Z,61.50
2022-08-08T15:41:10.032Z,61.80
2022-08-08T15:43:40.834Z,61.50
2022-08-08T15:46:10.407Z,61.80
2022-08-08T15:48:47.095Z,60.40
2022-08-08T15:51:16.670Z,60.30
2022-08-08T15:53:50.016Z,60.00
2022-08-08T15:56:20.420Z,60.30
2022-08-08T15:58:51.729Z,59.80
2022-08-08T16:01:22.504Z,59.70
2022-08-08T16:04:15.082Z,60.30
2022-08-08T16:06:57.372Z,59.90
2022-08-08T16:13:10.232Z,59.60
2022-08-08T16:13:29.354Z,60.10
2022-08-08T16:15:16.253Z,59.80
2022-08-08T16:18:06.517Z,60.00
2022-08-08T16:20:38.900Z,60.00
2022-08-08T16:23:11.553Z,59.30
2022-08-08T16:25:46.132Z,59.30
2022-08-08T16:28:35.241Z,59.30
2022-08-08T16:31:08.262Z,59.20
2022-08-08T16:33:41.849Z,59.10
2022-08-08T16:36:33.346Z,58.80
2022-08-08T16:39:09.634Z,59.00
2022-08-08T16:41:51.083Z,59.10
2022-08-08T16:44:27.817Z,58.80
2022-08-08T16:47:21.901Z,58.80
2022-08-08T16:50:04.073Z,58.50
2022-08-08T16:55:05.139Z,58.60
2022-08-08T16:55:53.852Z,58.60
2022-08-08T16:58:34.443Z,58.50
2022-08-08T17:01:05.976Z,58.50
2022-08-08T17:04:00.439Z,58.60
2022-08-08T17:06:39.873Z,58.30
2022-08-08T17:09:15.940Z,57.80
2022-08-08T17:11:54.571Z,57.80
2022-08-08T17:14:34.221Z,57.70
2022-08-08T17:17:05.876Z,57.80
2022-08-08T17:19:55.112Z,57.20
2022-08-08T17:22:38.953Z,57.80
2022-08-08T17:25:12.477Z,58.20
2022-08-08T17:27:46.576Z,57.80
2022-08-08T17:30:27.318Z,57.30
2022-08-08T17:34:37.412Z,57.40
2022-08-08T17:36:09.815Z,57.50
2022-08-08T17:38:40.449Z,57.60
2022-08-08T17:41:12.846Z,58.00
2022-08-08T17:44:00.972Z,58.10
2022-08-08T17:46:37.071Z,58.30
2022-08-08T17:49:10.293Z,58.40
2022-08-08T17:51:43.711Z,58.30
2022-08-08T17:54:22.341Z,58.70
2022-08-08T17:56:56.660Z,58.80
2022-08-08T17:59:30.596Z,58.90
2022-08-08T18:02:11.264Z,59.20
2022-08-08T18:04:50.314Z,59.20
2022-08-08T18:08:15.622Z,59.40
2022-08-08T18:10:09.973Z,59.40
2022-08-08T18:12:45.952Z,59.40
2022-08-08T18:15:15.915Z,59.60
2022-08-08T18:18:08.989Z,59.60
2022-08-08T18:20:54.953Z,59.70
2022-08-08T18:23:26.489Z,60.00
2022-08-08T18:25:56.425Z,60.30
2022-08-08T18:28:34.723Z,60.50
2022-08-08T18:31:21.728Z,60.80
2022-08-08T18:34:11.701Z,61.20
2022-08-08T18:36:40.350Z,61.50
2022-08-08T18:39:16.420Z,61.90
2022-08-08T18:41:57.497Z,61.90
2022-08-08T18:44:32.831Z,62.00
2022-08-08T18:47:03.835Z,62.00
2022-08-08T18:49:40.924Z,62.20
2022-08-08T18:52:23.683Z,62.30
2022-08-08T18:54:59.568Z,62.50
2022-08-08T18:57:41.027Z,62.50
2022-08-08T19:00:19.701Z,62.40
2022-08-08T19:02:55.774Z,62.80
2022-08-08T19:05:32.130Z,62.80
2022-08-08T19:08:25.016Z,63.00
2022-08-08T19:10:59.899Z,62.90
2022-08-08T19:13:53.097Z,63.10
2022-08-08T19:16:32.056Z,63.30
2022-08-08T19:19:04.022Z,63.30
2022-08-08T19:22:21.743Z,64.10
2022-08-08T19:25:18.999Z,64.50
2022-08-08T19:27:56.912Z,66.00
2022-08-08T19:30:29.418Z,65.80
2022-08-08T19:33:00.636Z,66.10
2022-08-08T19:35:44.162Z,65.90
2022-08-08T19:38:17.491Z,66.70
2022-08-08T19:40:54.556Z,67.80
2022-08-08T19:43:28.695Z,67.70
2022-08-08T19:46:01.187Z,68.40
2022-08-08T19:48:33.251Z,68.60
2022-08-08T19:51:06.926Z,68.90
2022-08-08T19:53:51.327Z,68.80
2022-08-08T19:56:40.003Z,68.30
2022-08-08T19:59:11.748Z,68.80
2022-08-08T20:02:01.421Z,69.60
2022-08-08T20:04:34.876Z,69.80
2022-08-08T20:08:28.649Z,70.30
2022-08-08T20:09:56.586Z,70.20
2022-08-08T20:12:34.948Z,70.30
2022-08-08T20:15:16.804Z,70.60
2022-08-08T20:17:48.461Z,71.50
2022-08-08T20:20:22.251Z,71.90
2022-08-08T20:22:52.574Z,72.10
2022-08-08T20:25:29.786Z,72.30
2022-08-08T20:28:07.874Z,72.60
2022-08-08T20:30:56.141Z,73.00
2022-08-08T20:33:28.877Z,73.50
2022-08-08T20:36:22.177Z,73.70
2022-08-08T20:38:51.731Z,73.50
2022-08-08T20:41:23.826Z,73.30
2022-08-08T20:43:53.451Z,73.70
2022-08-08T20:46:25.391Z,73.50
2022-08-08T20:48:58.513Z,74.10
2022-08-08T20:51:32.255Z,74.60
2022-08-08T20:54:13.853Z,75.40
2022-08-08T20:57:16.150Z,75.20
2022-08-08T20:59:41.252Z,75.40
2022-08-08T21:02:12.654Z,75.70
2022-08-08T21:04:47.827Z,76.10
2022-08-08T21:07:31.330Z,77.40
2022-08-08T21:10:13.098Z,76.50
2022-08-08T21:12:44.697Z,76.70
2022-08-08T21:16:05.148Z,76.50
2022-08-08T21:18:07.194Z,76.10
2022-08-08T21:20:36.279Z,76.70
2022-08-08T21:23:09.591Z,77.40
2022-08-08T21:25:42.510Z,77.40
2022-08-08T21:28:15.699Z,77.90
2022-08-08T21:30:49.715Z,77.80
2022-08-08T21:33:21.653Z,77.80
2022-08-08T21:36:16.576Z,78.00
2022-08-08T21:38:41.693Z,79.30
2022-08-08T21:41:10.869Z,79.00
2022-08-08T21:43:58.273Z,78.80
2022-08-08T21:48:01.298Z,79.90
2022-08-08T21:49:16.767Z,80.40
2022-08-08T21:54:26.198Z,80.70
2022-08-08T21:54:54.208Z,81.20
2022-08-08T21:57:26.559Z,81.20
2022-08-08T22:00:02.691Z,81.70
2022-08-08T22:02:43.114Z,82.00
2022-08-08T22:05:14.914Z,82.40
2022-08-08T22:07:48.313Z,83.00
2022-08-08T22:10:32.213Z,82.80
2022-08-08T22:13:17.356Z,82.80
2022-08-08T22:15:59.456Z,82.80
2022-08-08T22:18:33.937Z,82.70
2022-08-08T22:21:10.776Z,83.20
2022-08-08T22:23:49.400Z,83.70
2022-08-08T22:26:28.575Z,83.80
2022-08-08T22:29:04.759Z,84.60
2022-08-08T22:32:02.308Z,84.80
2022-08-08T22:34:39.965Z,84.30
2022-08-08T22:37:27.829Z,84.50
2022-08-08T22:40:01.136Z,84.60
2022-08-08T22:42:34.491Z,84.80
2022-08-08T22:45:12.629Z,85.70
2022-08-08T22:47:46.952Z,85.90
2022-08-08T22:50:26.906Z,85.80
2022-08-08T22:54:27.753Z,86.00
2022-08-08T22:55:57.709Z,86.60
2022-08-08T22:58:33.340Z,87.20
2022-08-08T23:02:00.943Z,87.90
2022-08-08T23:03:56.000Z,87.60
2022-08-08T23:06:26.590Z,87.60
2022-08-08T23:09:00.129Z,88.00
2022-08-08T23:12:28.827Z,88.30
2022-08-08T23:14:22.840Z,88.60
2022-08-08T23:16:59.555Z,89.90
2022-08-08T23:19:30.629Z,89.30
2022-08-08T23:22:04.587Z,89.50
2022-08-08T23:24:36.686Z,89.90
2022-08-08T23:27:07.404Z,89.90
2022-08-08T23:29:38.536Z,90.10
2022-08-08T23:32:10.303Z,90.40
2022-08-08T23:34:58.465Z,90.10
2022-08-08T23:38:00.960Z,90.10
2022-08-08T23:40:22.149Z,90.30
2022-08-08T23:42:52.020Z,90.70
2022-08-08T23:48:59.779Z,90.80
2022-08-08T23:49:01.804Z,90.70
2022-08-08T23:51:00.730Z,90.90
2022-08-08T23:54:04.877Z,91.10
2022-08-08T23:56:31.768Z,91.60
2022-08-08T23:59:02.260Z,91.70
